Time;durP1;ratioP1;P1;durP2;ratioP2;P2;SDS_P1;SDS_P2;PMS_P1;PMS_P2;Temp;Humidity;BMP_temperature;BMP_pressure;BME280_temperature;BME280_humidity;BME280_pressure;Samples;Min_cycle;Max_cycle;Signal;HPM_P1;HPM_P2
2023/01/25 00:02:06;;;;;;;37.33;14.70;;;1.10;99.90;;;;;;4992079;28;20026;-76
2023/01/25 00:04:32;;;;;;;34.95;14.40;;;1.10;99.90;;;;;;4998460;28;20121;-74
2023/01/25 00:06:57;;;;;;;33.58;14.40;;;1.10;99.90;;;;;;4992725;28;20046;-76
2023/01/25 00:09:24;;;;;;;33.55;14.75;;;1.00;99.90;;;;;;4996532;28;20124;-75
2023/01/25 00:11:51;;;;;;;26.05;11.55;;;1.00;99.90;;;;;;4992301;28;20030;-74
2023/01/25 00:14:17;;;;;;;31.38;13.95;;;1.00;99.90;;;;;;4990317;28;20075;-74
2023/01/25 00:16:43;;;;;;;36.92;15.52;;;0.90;99.90;;;;;;4994015;28;20074;-76
2023/01/25 00:19:10;;;;;;;34.95;15.55;;;0.80;99.90;;;;;;4991366;28;20035;-77
2023/01/25 00:21:36;;;;;;;27.17;12.18;;;0.80;99.90;;;;;;4991157;28;20041;-75
2023/01/25 00:24:02;;;;;;;31.60;14.07;;;0.80;99.90;;;;;;4992882;28;20022;-76
2023/01/25 00:26:34;;;;;;;36.13;15.02;;;0.80;99.90;;;;;;4996109;28;20077;-76
2023/01/25 00:29:00;;;;;;;30.80;13.48;;;0.80;99.90;;;;;;4994636;28;20466;-75
2023/01/25 00:31:49;;;;;;;25.98;11.48;;;0.80;99.90;;;;;;5000096;28;20022;-73
2023/01/25 00:34:24;;;;;;;38.83;16.48;;;0.80;99.90;;;;;;5001032;28;20026;-76
2023/01/25 00:37:00;;;;;;;32.80;15.10;;;0.70;99.90;;;;;;5017223;28;20034;-74
2023/01/25 00:39:26;;;;;;;36.28;14.13;;;0.70;99.90;;;;;;5000013;28;20050;-74
2023/01/25 00:41:52;;;;;;;38.17;15.98;;;0.70;99.90;;;;;;4996802;28;20030;-75
2023/01/25 00:44:17;;;;;;;33.78;14.07;;;0.70;99.90;;;;;;4995220;28;20049;-75
2023/01/25 00:46:44;;;;;;;35.88;15.02;;;0.70;99.90;;;;;;5007837;28;20542;-76
2023/01/25 00:49:20;;;;;;;37.08;16.25;;;0.70;99.90;;;;;;5007664;28;20039;-75
2023/01/25 00:51:46;;;;;;;29.35;12.55;;;0.80;99.90;;;;;;5007515;28;20165;-75
2023/01/25 00:54:12;;;;;;;38.00;17.10;;;0.80;99.90;;;;;;5007562;28;20030;-76
2023/01/25 00:56:38;;;;;;;31.73;14.40;;;0.80;99.90;;;;;;5007659;28;20106;-75
2023/01/25 00:59:03;;;;;;;37.33;17.27;;;0.80;99.90;;;;;;5022384;28;20519;-75
2023/01/25 01:01:29;;;;;;;37.75;17.85;;;0.80;99.90;;;;;;5006058;28;20104;-75
2023/01/25 01:03:54;;;;;;;37.03;15.25;;;0.80;99.90;;;;;;5005895;28;20157;-75
2023/01/25 01:06:20;;;;;;;37.85;16.67;;;0.80;99.90;;;;;;5007149;28;20027;-75
2023/01/25 01:08:45;;;;;;;37.15;17.05;;;0.80;99.90;;;;;;5007470;28;20060;-75
2023/01/25 01:11:12;;;;;;;38.13;16.67;;;0.80;99.90;;;;;;5006134;28;20037;-76
2023/01/25 01:13:38;;;;;;;38.78;16.80;;;0.80;99.90;;;;;;5007438;28;20038;-74
2023/01/25 01:16:12;;;;;;;37.22;15.05;;;0.90;99.90;;;;;;5007627;28;20030;-74
2023/01/25 01:18:40;;;;;;;;;;;0.90;99.90;;;;;;5006550;28;20050;-76
2023/01/25 01:21:07;;;;;;;41.17;17.92;;;0.80;99.90;;;;;;5007243;28;19928;-75
2023/01/25 01:23:35;;;;;;;38.53;16.65;;;0.80;99.90;;;;;;5006289;28;20029;-75
2023/01/25 01:26:03;;;;;;;32.65;14.30;;;0.80;99.90;;;;;;5006804;28;20034;-74
2023/01/25 01:28:30;;;;;;;43.80;17.77;;;0.80;99.90;;;;;;5005560;28;20033;-75
2023/01/25 01:31:05;;;;;;;39.75;17.27;;;0.90;99.90;;;;;;5005548;28;20033;-74
2023/01/25 01:33:30;;;;;;;39.35;17.77;;;0.80;99.90;;;;;;5006876;28;20019;-76
2023/01/25 01:35:56;;;;;;;36.65;17.27;;;0.80;99.90;;;;;;5005786;28;20041;-75
2023/01/25 01:38:22;;;;;;;39.22;15.93;;;0.80;99.90;;;;;;5006795;28;20050;-74
2023/01/25 01:40:48;;;;;;;45.95;19.42;;;0.80;99.90;;;;;;5005295;28;20030;-75
2023/01/25 01:43:21;;;;;;;45.47;20.38;;;0.70;99.90;;;;;;5005496;28;20034;-75
2023/01/25 01:45:46;;;;;;;41.33;17.63;;;0.70;99.90;;;;;;5005187;28;20125;-75
2023/01/25 01:48:33;;;;;;;43.38;18.90;;;0.70;99.90;;;;;;5005376;28;20033;-76
2023/01/25 01:51:11;;;;;;;41.22;18.55;;;0.70;99.90;;;;;;5005179;28;20042;-75
2023/01/25 01:53:37;;;;;;;39.97;18.08;;;0.70;99.90;;;;;;5006850;28;20053;-75
2023/01/25 01:56:10;;;;;;;43.35;19.33;;;0.80;99.90;;;;;;5004071;28;20113;-74
2023/01/25 01:58:36;;;;;;;43.25;19.02;;;0.80;99.90;;;;;;5006274;28;20041;-74
2023/01/25 02:01:01;;;;;;;44.17;20.05;;;0.80;99.90;;;;;;5006161;28;20039;-74
2023/01/25 02:03:28;;;;;;;42.05;18.25;;;0.80;99.90;;;;;;5005083;28;20061;-74
2023/01/25 02:06:21;;;;;;;48.90;21.63;;;0.80;99.90;;;;;;5006375;28;20030;-74
2023/01/25 02:08:47;;;;;;;38.50;16.52;;;0.80;99.90;;;;;;5006179;28;20025;-75
2023/01/25 02:11:12;;;;;;;50.03;21.40;;;0.80;99.90;;;;;;5005942;28;20030;-73
2023/01/25 02:13:38;;;;;;;45.47;21.08;;;0.70;99.90;;;;;;5006510;28;20077;-75
2023/01/25 02:16:05;;;;;;;44.80;19.75;;;0.70;99.90;;;;;;5005732;28;20029;-75
2023/01/25 02:18:31;;;;;;;45.55;21.38;;;0.70;99.90;;;;;;5004959;28;20046;-74
2023/01/25 02:20:58;;;;;;;55.15;23.88;;;0.70;99.90;;;;;;5005281;28;20093;-75
2023/01/25 02:23:35;;;;;;;52.92;24.75;;;0.70;99.90;;;;;;5003931;28;20082;-74
2023/01/25 02:26:02;;;;;;;56.83;25.00;;;0.70;99.90;;;;;;5005797;28;20437;-75
2023/01/25 02:28:45;;;;;;;54.03;21.92;;;0.80;99.90;;;;;;5004431;28;20038;-75
2023/01/25 02:31:11;;;;;;;47.05;17.98;;;0.80;99.90;;;;;;5005852;28;20030;-73
2023/01/25 02:33:36;;;;;;;51.78;22.33;;;0.80;99.90;;;;;;5006212;28;20052;-74
2023/01/25 02:36:08;;;;;;;53.70;21.80;;;0.80;99.90;;;;;;5005542;28;20053;-73
2023/01/25 02:38:37;;;;;;;47.97;21.13;;;0.70;99.90;;;;;;5005421;28;20042;-75
2023/01/25 02:41:20;;;;;;;54.30;23.55;;;0.70;99.90;;;;;;5005470;28;20085;-75
2023/01/25 02:43:45;;;;;;;50.15;22.27;;;0.80;99.90;;;;;;5004436;28;20026;-74
2023/01/25 02:46:20;;;;;;;50.78;22.95;;;0.80;99.90;;;;;;5004109;28;20098;-74
2023/01/25 02:48:45;;;;;;;58.13;25.33;;;0.80;99.90;;;;;;5004142;28;20050;-75
2023/01/25 02:51:12;;;;;;;49.42;21.17;;;0.80;99.90;;;;;;4998133;28;20035;-74
2023/01/25 02:53:37;;;;;;;55.42;24.63;;;0.80;99.90;;;;;;4991366;28;20029;-74
2023/01/25 02:56:03;;;;;;;52.08;24.05;;;0.80;99.90;;;;;;5004977;28;20058;-73
2023/01/25 02:58:29;;;;;;;51.40;22.98;;;0.70;99.90;;;;;;5005185;28;20141;-75
2023/01/25 03:00:56;;;;;;;51.88;22.27;;;0.80;99.90;;;;;;5003818;28;20053;-74
2023/01/25 03:03:22;;;;;;;54.95;23.77;;;0.70;99.90;;;;;;5003728;28;20057;-73
2023/01/25 03:05:47;;;;;;;59.53;26.13;;;0.70;99.90;;;;;;5005276;28;20467;-73
2023/01/25 03:08:13;;;;;;;64.95;27.60;;;0.70;99.90;;;;;;5005356;28;20033;-75
2023/01/25 03:10:39;;;;;;;62.45;27.50;;;0.70;99.90;;;;;;5003812;28;20513;-72
2023/01/25 03:13:04;;;;;;;57.47;23.75;;;0.70;99.90;;;;;;5005215;28;20105;-74
2023/01/25 03:15:30;;;;;;;47.05;21.63;;;0.70;99.90;;;;;;5003637;28;20034;-73
2023/01/25 03:17:56;;;;;;;54.75;24.13;;;0.70;99.90;;;;;;5004817;28;20038;-74
2023/01/25 03:20:22;;;;;;;59.75;25.83;;;0.70;99.90;;;;;;5004881;28;20038;-74
2023/01/25 03:22:48;;;;;;;53.00;22.50;;;0.70;99.90;;;;;;5004843;28;20035;-74
2023/01/25 03:25:13;;;;;;;46.53;21.10;;;0.60;99.90;;;;;;5005057;28;20090;-75
2023/01/25 03:27:44;;;;;;;52.15;23.00;;;0.60;99.90;;;;;;5003865;28;20030;-74
2023/01/25 03:30:11;;;;;;;35.42;15.80;;;0.60;99.90;;;;;;5005001;28;20072;-73
2023/01/25 03:32:37;;;;;;;52.55;23.48;;;0.60;99.90;;;;;;5003549;28;20418;-73
2023/01/25 03:35:03;;;;;;;53.88;22.35;;;0.60;99.90;;;;;;5004891;28;20078;-73
2023/01/25 03:37:30;;;;;;;63.15;25.33;;;0.50;99.90;;;;;;5004429;28;20494;-73
2023/01/25 03:39:56;;;;;;;64.72;26.48;;;0.60;99.90;;;;;;5004401;28;20098;-74
2023/01/25 03:42:22;;;;;;;67.68;27.33;;;0.50;99.90;;;;;;5003377;28;20023;-74
2023/01/25 03:44:48;;;;;;;53.33;21.52;;;0.50;99.90;;;;;;5004548;28;20042;-74
2023/01/25 03:47:13;;;;;;;63.17;25.10;;;0.50;99.90;;;;;;5003098;28;20034;-74
2023/01/25 03:49:39;;;;;;;54.60;24.02;;;0.50;99.90;;;;;;5002914;28;20041;-73
2023/01/25 03:52:05;;;;;;;52.63;22.77;;;0.50;99.90;;;;;;5004596;28;20031;-74
2023/01/25 03:54:30;;;;;;;59.45;26.77;;;0.60;99.90;;;;;;5002964;28;20080;-75
2023/01/25 03:56:56;;;;;;;63.47;26.83;;;0.50;99.90;;;;;;5003298;28;20065;-74
2023/01/25 03:59:22;;;;;;;52.83;21.30;;;0.60;99.90;;;;;;5006158;28;20042;-73
2023/01/25 04:01:47;;;;;;;56.08;25.92;;;0.60;99.90;;;;;;5007293;28;20026;-75
2023/01/25 04:04:13;;;;;;;64.22;27.27;;;0.60;99.90;;;;;;5008750;28;20031;-74
2023/01/25 04:06:39;;;;;;;59.35;25.58;;;0.60;99.90;;;;;;5008737;28;20034;-74
2023/01/25 04:09:05;;;;;;;64.13;27.30;;;0.60;99.90;;;;;;5007016;28;20470;-74
2023/01/25 04:11:30;;;;;;;67.95;28.05;;;0.60;99.90;;;;;;5006296;28;20037;-75
2023/01/25 04:13:56;;;;;;;63.28;27.58;;;0.70;99.90;;;;;;5007532;28;20030;-74
2023/01/25 04:16:22;;;;;;;64.25;28.15;;;0.70;99.90;;;;;;5006929;28;20113;-75
2023/01/25 04:18:47;;;;;;;64.55;26.23;;;0.70;99.90;;;;;;5008299;28;20105;-74
2023/01/25 04:21:13;;;;;;;66.97;28.17;;;0.70;99.90;;;;;;5008411;28;20027;-74
2023/01/25 04:23:38;;;;;;;65.05;27.35;;;0.70;99.90;;;;;;5008649;28;20034;-75
2023/01/25 04:26:06;;;;;;;52.28;22.92;;;0.70;99.90;;;;;;5008388;28;20034;-73
2023/01/25 04:28:33;;;;;;;61.25;25.80;;;0.70;99.90;;;;;;5006875;28;20463;-74
2023/01/25 04:30:59;;;;;;;53.75;24.15;;;0.60;99.90;;;;;;5006446;28;20038;-74
2023/01/25 04:33:25;;;;;;;55.10;23.77;;;0.60;99.90;;;;;;5008484;28;20030;-73
2023/01/25 04:35:50;;;;;;;63.38;24.65;;;0.60;99.90;;;;;;5007889;28;20051;-74
2023/01/25 04:38:17;;;;;;;57.60;25.25;;;0.60;99.90;;;;;;5007918;28;20042;-74
2023/01/25 04:40:43;;;;;;;58.88;27.02;;;0.60;99.90;;;;;;5006659;28;20038;-74
2023/01/25 04:43:11;;;;;;;58.95;27.00;;;0.60;99.90;;;;;;5006638;28;20117;-74
2023/01/25 04:45:37;;;;;;;68.45;28.77;;;0.60;99.90;;;;;;5007617;28;20828;-74
2023/01/25 04:48:05;;;;;;;67.88;28.88;;;0.60;99.90;;;;;;5007566;28;20033;-74
2023/01/25 04:50:31;;;;;;;67.45;29.38;;;0.60;99.90;;;;;;5007559;28;20109;-74
2023/01/25 04:52:56;;;;;;;66.63;28.88;;;0.60;99.90;;;;;;5007672;28;20033;-74
2023/01/25 04:55:22;;;;;;;61.67;26.77;;;0.60;99.90;;;;;;5007159;28;20050;-74
2023/01/25 04:57:49;;;;;;;71.10;30.00;;;0.60;99.90;;;;;;5007219;28;20026;-74
2023/01/25 05:00:16;;;;;;;75.28;31.70;;;0.60;99.90;;;;;;5007480;28;20133;-74
2023/01/25 05:02:42;;;;;;;79.20;32.50;;;0.60;99.90;;;;;;5007412;28;20475;-74
2023/01/25 05:05:08;;;;;;;71.22;31.70;;;0.60;99.90;;;;;;5006180;28;20035;-73
2023/01/25 05:07:34;;;;;;;77.00;30.58;;;0.60;99.90;;;;;;4996155;28;20506;-74
2023/01/25 05:09:59;;;;;;;75.82;32.70;;;0.60;99.90;;;;;;4996032;28;20071;-74
2023/01/25 05:12:25;;;;;;;77.85;31.08;;;0.60;99.90;;;;;;5006602;28;20038;-73
2023/01/25 05:14:51;;;;;;;72.40;29.58;;;0.60;99.90;;;;;;5007299;28;20023;-73
2023/01/25 05:17:17;;;;;;;87.22;34.55;;;0.60;99.90;;;;;;5007053;28;20034;-75
2023/01/25 05:19:42;;;;;;;82.10;34.53;;;0.60;99.90;;;;;;5007150;28;20049;-74
2023/01/25 05:22:13;;;;;;;80.03;33.50;;;0.60;99.90;;;;;;5007068;28;20027;-73
2023/01/25 05:24:40;;;;;;;75.85;31.40;;;0.60;99.90;;;;;;5006016;28;20094;-74
2023/01/25 05:27:07;;;;;;;84.38;32.85;;;0.60;99.90;;;;;;5006959;28;20513;-75
2023/01/25 05:29:35;;;;;;;80.85;33.85;;;0.60;99.90;;;;;;5004776;28;20027;-74
2023/01/25 05:32:06;;;;;;;75.97;31.65;;;0.60;99.90;;;;;;5006676;28;20026;-73
2023/01/25 05:34:33;;;;;;;73.03;32.50;;;0.60;99.90;;;;;;5005619;28;20061;-74
2023/01/25 05:36:59;;;;;;;76.35;32.72;;;0.60;99.90;;;;;;5005538;28;20030;-74
2023/01/25 05:39:24;;;;;;;72.47;28.20;;;0.50;99.90;;;;;;5005092;28;20038;-74
2023/01/25 05:41:50;;;;;;;67.40;29.80;;;0.50;99.90;;;;;;5006530;28;20033;-73
2023/01/25 05:44:16;;;;;;;85.07;33.60;;;0.50;99.90;;;;;;5007009;28;20030;-73
2023/01/25 05:46:41;;;;;;;68.43;26.63;;;0.50;99.90;;;;;;5006466;28;20034;-73
2023/01/25 05:49:07;;;;;;;65.75;27.23;;;0.50;99.90;;;;;;5005466;28;20030;-73
2023/01/25 05:51:34;;;;;;;63.55;27.90;;;0.40;99.90;;;;;;5006500;28;20027;-73
2023/01/25 05:54:00;;;;;;;81.13;30.55;;;0.40;99.90;;;;;;5005115;28;20052;-75
2023/01/25 05:56:26;;;;;;;79.82;30.67;;;0.40;99.90;;;;;;5004778;28;20054;-74
2023/01/25 05:58:53;;;;;;;70.53;28.88;;;0.40;99.90;;;;;;5006338;28;20376;-74
2023/01/25 06:01:18;;;;;;;64.05;26.25;;;0.40;99.90;;;;;;5004846;28;20102;-75
2023/01/25 06:03:45;;;;;;;69.70;29.63;;;0.40;99.90;;;;;;5005052;28;20030;-75
2023/01/25 06:06:11;;;;;;;74.72;29.60;;;0.40;99.90;;;;;;5005062;28;20026;-75
2023/01/25 06:08:36;;;;;;;77.28;29.65;;;0.40;99.90;;;;;;5006371;28;20026;-74
2023/01/25 06:11:06;;;;;;;66.78;27.15;;;0.40;99.90;;;;;;5005991;28;20054;-74
2023/01/25 06:13:32;;;;;;;69.20;28.38;;;0.40;99.90;;;;;;5003360;28;20030;-73
2023/01/25 06:15:58;;;;;;;67.97;26.02;;;0.30;99.90;;;;;;4993187;28;20026;-74
2023/01/25 06:18:23;;;;;;;73.78;28.55;;;0.30;99.90;;;;;;4990231;28;20038;-73
2023/01/25 06:20:49;;;;;;;71.75;28.88;;;0.30;99.90;;;;;;5003937;28;20490;-73
2023/01/25 06:23:16;;;;;;;69.63;28.20;;;0.30;99.90;;;;;;5001184;28;20023;-73
2023/01/25 06:25:42;;;;;;;69.10;27.52;;;0.30;99.90;;;;;;5002960;28;20351;-74
2023/01/25 06:28:09;;;;;;;73.05;27.88;;;0.30;99.90;;;;;;5005524;28;20085;-73
2023/01/25 06:30:34;;;;;;;72.03;28.58;;;0.30;99.90;;;;;;5003669;28;20057;-73
2023/01/25 06:33:01;;;;;;;73.30;29.33;;;0.30;99.90;;;;;;5005869;28;20033;-73
2023/01/25 06:35:27;;;;;;;81.07;30.55;;;0.30;99.90;;;;;;5002906;28;20031;-72
2023/01/25 06:37:57;;;;;;;82.05;29.75;;;0.30;99.90;;;;;;5004184;28;20049;-72
2023/01/25 06:40:23;;;;;;;80.50;31.30;;;0.40;99.90;;;;;;5004261;28;20042;-74
2023/01/25 06:42:48;;;;;;;86.63;32.58;;;0.40;99.90;;;;;;5004584;28;20117;-74
2023/01/25 06:45:14;;;;;;;84.65;32.35;;;0.40;99.90;;;;;;5003872;28;20033;-74
2023/01/25 06:47:42;;;;;;;89.47;32.83;;;0.40;99.90;;;;;;5003249;28;20029;-75
2023/01/25 06:50:08;;;;;;;89.57;34.20;;;0.40;99.90;;;;;;4998916;28;20129;-73
2023/01/25 06:52:35;;;;;;;91.80;35.05;;;0.40;99.90;;;;;;5004095;28;20038;-73
2023/01/25 06:55:06;;;;;;;92.90;35.55;;;0.40;99.90;;;;;;5000660;28;20078;-73
2023/01/25 06:57:32;;;;;;;89.57;36.08;;;0.50;99.90;;;;;;4995768;28;20113;-73
2023/01/25 06:59:58;;;;;;;90.55;35.85;;;0.50;99.90;;;;;;4997314;28;20038;-73
2023/01/25 07:02:23;;;;;;;87.30;34.95;;;0.50;99.90;;;;;;4995333;28;20070;-73
2023/01/25 07:04:49;;;;;;;84.65;33.63;;;0.50;99.90;;;;;;4988601;28;21908;-74
2023/01/25 07:07:14;;;;;;;85.00;32.17;;;0.50;99.90;;;;;;4989670;28;20042;-74
2023/01/25 07:09:40;;;;;;;92.00;34.22;;;0.40;99.90;;;;;;4996068;28;20030;-73
2023/01/25 07:12:06;;;;;;;89.85;34.15;;;0.40;99.90;;;;;;4989876;28;20422;-73
2023/01/25 07:14:32;;;;;;;81.10;32.75;;;0.40;99.90;;;;;;4983811;28;20057;-73
2023/01/25 07:16:57;;;;;;;94.75;35.63;;;0.40;99.90;;;;;;4993512;28;20033;-73
2023/01/25 07:19:23;;;;;;;91.28;35.33;;;0.40;99.90;;;;;;5003856;28;20038;-74
2023/01/25 07:21:49;;;;;;;93.90;37.17;;;0.40;99.90;;;;;;5004050;28;20087;-73
2023/01/25 07:24:16;;;;;;;94.75;36.22;;;0.40;99.90;;;;;;5004866;28;20022;-74
2023/01/25 07:26:42;;;;;;;88.90;33.15;;;0.40;99.90;;;;;;5004942;28;20471;-73
2023/01/25 07:29:11;;;;;;;87.22;33.55;;;0.40;99.90;;;;;;5005157;28;20034;-73
2023/01/25 07:31:37;;;;;;;88.78;34.50;;;0.40;99.90;;;;;;5004792;28;20027;-73
2023/01/25 07:34:03;;;;;;;93.85;32.35;;;0.40;99.90;;;;;;5004122;28;20077;-73
2023/01/25 07:36:29;;;;;;;85.43;30.58;;;0.40;99.90;;;;;;5000150;28;20034;-73
2023/01/25 07:38:57;;;;;;;82.75;32.97;;;0.30;99.90;;;;;;5003424;28;20051;-73
2023/01/25 07:41:24;;;;;;;85.93;32.28;;;0.30;99.90;;;;;;5003707;28;20034;-73
2023/01/25 07:43:50;;;;;;;87.38;34.47;;;0.30;99.90;;;;;;5003571;28;20098;-73
2023/01/25 07:46:16;;;;;;;89.50;32.38;;;0.30;99.90;;;;;;5003940;28;20058;-75
2023/01/25 07:48:47;;;;;;;93.38;35.95;;;0.30;99.90;;;;;;5003826;28;20038;-74
2023/01/25 07:51:23;;;;;;;100.47;36.60;;;0.20;99.90;;;;;;5003476;28;20049;-73
2023/01/25 07:54:03;;;;;;;94.85;36.20;;;0.30;99.90;;;;;;5003312;28;20117;-74
2023/01/25 07:56:31;;;;;;;93.18;33.90;;;0.30;99.90;;;;;;5001724;28;20140;-73
2023/01/25 07:58:59;;;;;;;99.47;38.50;;;0.30;99.90;;;;;;5002569;28;20073;-73
2023/01/25 08:01:26;;;;;;;98.35;36.78;;;0.30;99.90;;;;;;5002897;28;20030;-73
2023/01/25 08:03:55;;;;;;;92.57;36.80;;;0.30;99.90;;;;;;5001114;28;20030;-74
2023/01/25 08:06:29;;;;;;;91.18;34.17;;;0.30;99.90;;;;;;5004461;28;20022;-74
2023/01/25 08:08:55;;;;;;;91.53;32.85;;;0.30;99.90;;;;;;5002994;28;20443;-73
2023/01/25 08:11:24;;;;;;;87.32;34.90;;;0.30;99.90;;;;;;5003235;28;20041;-74
2023/01/25 08:13:49;;;;;;;93.93;34.55;;;0.30;99.90;;;;;;4993486;28;20085;-73
2023/01/25 08:16:17;;;;;;;86.80;34.20;;;0.30;99.90;;;;;;5004264;28;20030;-74
2023/01/25 08:18:46;;;;;;;84.03;32.50;;;0.30;99.90;;;;;;4990297;28;20081;-74
2023/01/25 08:21:12;;;;;;;84.35;31.85;;;0.30;99.90;;;;;;4997816;28;20031;-74
2023/01/25 08:23:37;;;;;;;89.40;34.40;;;0.30;99.90;;;;;;4987823;28;20069;-74
2023/01/25 08:26:08;;;;;;;91.30;34.05;;;0.40;99.90;;;;;;5001995;28;20390;-73
2023/01/25 08:28:34;;;;;;;89.13;33.63;;;0.40;99.90;;;;;;5002962;28;20031;-74
2023/01/25 08:31:08;;;;;;;92.05;34.63;;;0.40;99.90;;;;;;5003687;28;20030;-73
2023/01/25 08:33:34;;;;;;;88.03;32.95;;;0.40;99.90;;;;;;5003638;28;20376;-74
2023/01/25 08:35:59;;;;;;;90.68;33.67;;;0.40;99.90;;;;;;5003831;28;20065;-73
2023/01/25 08:38:25;;;;;;;89.28;35.95;;;0.40;99.90;;;;;;5002600;28;20065;-73
2023/01/25 08:40:51;;;;;;;93.25;35.17;;;0.30;99.90;;;;;;5003929;28;20099;-73
2023/01/25 08:43:17;;;;;;;87.78;31.98;;;0.30;99.90;;;;;;5002974;28;20029;-73
2023/01/25 08:45:42;;;;;;;93.55;33.65;;;0.30;99.90;;;;;;5002153;28;20031;-74
2023/01/25 08:48:08;;;;;;;98.00;35.60;;;0.30;99.90;;;;;;5007928;28;20445;-73
2023/01/25 08:50:33;;;;;;;104.25;38.72;;;0.30;99.90;;;;;;5003032;28;20045;-73
2023/01/25 08:52:59;;;;;;;112.55;39.78;;;0.30;99.90;;;;;;5007436;28;20034;-74
2023/01/25 08:55:25;;;;;;;116.95;41.67;;;0.30;99.90;;;;;;5005644;28;20070;-74
2023/01/25 08:57:50;;;;;;;109.38;40.33;;;0.20;99.90;;;;;;5006863;28;20038;-74
2023/01/25 09:00:16;;;;;;;104.57;40.35;;;0.30;99.90;;;;;;5007217;28;20034;-74
2023/01/25 09:02:42;;;;;;;102.57;39.17;;;0.30;99.90;;;;;;5004843;28;20026;-74
2023/01/25 09:05:08;;;;;;;104.72;39.28;;;0.30;99.90;;;;;;5006589;28;20054;-73
2023/01/25 09:07:37;;;;;;;101.63;36.67;;;0.30;99.90;;;;;;5026044;28;20026;-73
2023/01/25 09:10:07;;;;;;;113.15;41.38;;;0.30;99.90;;;;;;5011062;28;20026;-74
2023/01/25 09:12:34;;;;;;;108.40;40.58;;;0.30;99.90;;;;;;4998026;28;20050;-73
2023/01/25 09:15:01;;;;;;;105.63;39.38;;;0.40;99.90;;;;;;4995801;28;20030;-74
2023/01/25 09:17:27;;;;;;;112.85;41.30;;;0.40;99.90;;;;;;4993155;28;20022;-74
2023/01/25 09:19:52;;;;;;;106.93;41.17;;;0.40;99.90;;;;;;4999774;28;20092;-74
2023/01/25 09:22:18;;;;;;;114.93;43.22;;;0.40;99.90;;;;;;5005477;28;20039;-75
2023/01/25 09:24:43;;;;;;;118.65;38.50;;;0.40;99.90;;;;;;4999091;28;20031;-73
2023/01/25 09:27:09;;;;;;;116.68;41.97;;;0.40;99.90;;;;;;4991107;28;20082;-73
2023/01/25 09:29:35;;;;;;;127.88;43.03;;;0.40;99.90;;;;;;5005759;28;20033;-73
2023/01/25 09:32:01;;;;;;;120.15;43.47;;;0.40;99.90;;;;;;5003046;28;20086;-73
2023/01/25 09:34:26;;;;;;;123.97;44.28;;;0.40;99.90;;;;;;5004635;28;20030;-73
2023/01/25 09:36:52;;;;;;;112.90;39.67;;;0.40;99.90;;;;;;5003628;28;20067;-73
2023/01/25 09:39:18;;;;;;;115.30;40.53;;;0.40;99.90;;;;;;5006066;28;20050;-73
2023/01/25 09:41:46;;;;;;;123.45;44.97;;;0.40;99.90;;;;;;5005187;28;20030;-74
2023/01/25 09:44:33;;;;;;;124.57;44.67;;;0.30;99.90;;;;;;5006193;28;20034;-76
2023/01/25 09:47:21;;;;;;;131.52;46.78;;;0.30;99.90;;;;;;4993869;28;20046;-74
2023/01/25 09:50:09;;;;;;;115.95;40.80;;;0.30;99.90;;;;;;5004679;28;20031;-73
2023/01/25 09:53:18;;;;;;;119.78;44.78;;;0.40;99.90;;;;;;5004278;28;20085;-74
2023/01/25 09:55:49;;;;;;;123.70;41.58;;;0.40;99.90;;;;;;5006311;28;20435;-74
2023/01/25 09:58:24;;;;;;;115.50;42.28;;;0.40;99.90;;;;;;4995275;28;20117;-74
2023/01/25 10:00:58;;;;;;;114.45;42.05;;;0.40;99.90;;;;;;5006618;28;20037;-74
2023/01/25 10:03:33;;;;;;;;;;;0.40;99.90;;;;;;5005205;28;20090;-75
2023/01/25 10:06:01;;;;;;;109.13;40.47;;;0.40;99.90;;;;;;5004914;28;19925;-74
2023/01/25 10:08:54;;;;;;;123.07;43.50;;;0.30;99.90;;;;;;5002707;28;20038;-75
2023/01/25 10:11:29;;;;;;;127.15;44.95;;;0.30;99.90;;;;;;5006075;28;20037;-75
2023/01/25 10:13:56;;;;;;;120.93;43.63;;;0.20;99.90;;;;;;5006243;28;20101;-74
2023/01/25 10:16:55;;;;;;;111.43;39.03;;;0.20;99.90;;;;;;5006168;28;20431;-74
2023/01/25 10:19:51;;;;;;;131.15;43.20;;;0.20;99.90;;;;;;4999620;28;20106;-74
2023/01/25 10:22:24;;;;;;;134.55;45.53;;;0.20;99.90;;;;;;5004899;28;20030;-74
2023/01/25 10:25:10;;;;;;;118.43;42.97;;;0.30;99.90;;;;;;5004599;28;20031;-74
2023/01/25 10:27:44;;;;;;;118.63;43.17;;;0.30;99.90;;;;;;5006128;28;20105;-74
2023/01/25 10:30:25;;;;;;;117.43;41.55;;;0.30;99.90;;;;;;4998283;28;20031;-75
2023/01/25 10:32:55;;;;;;;121.63;44.83;;;0.30;99.90;;;;;;5003409;28;20053;-77
2023/01/25 10:35:25;;;;;;;127.55;45.38;;;0.30;99.90;;;;;;5003526;28;20041;-74
2023/01/25 10:37:52;;;;;;;126.75;43.63;;;0.30;99.90;;;;;;5005090;28;20032;-75
2023/01/25 10:40:24;;;;;;;118.80;42.08;;;0.30;99.90;;;;;;4999967;28;20385;-73
2023/01/25 10:43:19;;;;;;;115.57;40.60;;;0.30;99.90;;;;;;5001308;28;20033;-74
2023/01/25 10:45:45;;;;;;;112.90;40.03;;;0.40;99.90;;;;;;4996302;28;20030;-73
2023/01/25 10:48:19;;;;;;;113.03;40.78;;;0.40;99.90;;;;;;5005072;28;20030;-74
2023/01/25 10:50:50;;;;;;;108.85;39.65;;;0.40;99.90;;;;;;4994878;28;20094;-74
2023/01/25 10:53:25;;;;;;;99.78;36.55;;;0.40;99.90;;;;;;5004029;28;20032;-74
2023/01/25 10:56:05;;;;;;;103.78;37.15;;;0.50;99.90;;;;;;5003775;28;20077;-75
2023/01/25 10:58:39;;;;;;;111.50;38.35;;;0.40;99.90;;;;;;5001283;28;20066;-74
2023/01/25 11:01:24;;;;;;;102.68;37.38;;;0.40;99.90;;;;;;5005163;28;20034;-74
2023/01/25 11:03:50;;;;;;;105.18;38.47;;;0.30;99.90;;;;;;5013645;28;20038;-74
2023/01/25 11:06:29;;;;;;;97.30;36.33;;;0.30;99.90;;;;;;5003331;28;20049;-74
2023/01/25 11:08:54;;;;;;;104.22;37.20;;;0.40;99.90;;;;;;5003961;28;20022;-75
2023/01/25 11:11:37;;;;;;;111.28;37.20;;;0.40;99.90;;;;;;5002434;28;20041;-75
2023/01/25 11:14:16;;;;;;;118.78;39.40;;;0.40;99.90;;;;;;5018031;28;20034;-73
2023/01/25 11:16:46;;;;;;;112.43;41.33;;;0.40;99.90;;;;;;5019570;28;20117;-73
2023/01/25 11:19:32;;;;;;;117.15;40.03;;;0.30;99.90;;;;;;5004310;28;20038;-74
2023/01/25 11:21:59;;;;;;;113.30;40.58;;;0.40;99.90;;;;;;4994683;28;20103;-76
2023/01/25 11:24:27;;;;;;;120.90;41.22;;;0.30;99.90;;;;;;4994863;28;20427;-74
2023/01/25 11:27:12;;;;;;;125.38;41.17;;;0.30;99.90;;;;;;4984716;28;20033;-74
2023/01/25 11:29:37;;;;;;;105.15;38.80;;;0.40;99.90;;;;;;5000278;28;20030;-74
2023/01/25 11:32:15;;;;;;;97.38;32.38;;;0.40;99.90;;;;;;5004084;28;20049;-74
2023/01/25 11:34:41;;;;;;;105.65;39.15;;;0.40;99.90;;;;;;5004397;28;20475;-75
2023/01/25 11:37:18;;;;;;;95.82;35.20;;;0.40;99.90;;;;;;4999750;28;20043;-74
2023/01/25 11:39:53;;;;;;;101.85;37.35;;;0.30;99.90;;;;;;4983107;28;20088;-76
2023/01/25 11:42:42;;;;;;;123.88;42.60;;;0.30;99.90;;;;;;4983904;28;20023;-75
2023/01/25 11:45:31;;;;;;;101.50;35.47;;;0.30;99.90;;;;;;4996320;28;20054;-73
2023/01/25 11:48:15;;;;;;;97.45;35.88;;;0.30;99.90;;;;;;5000889;28;20035;-74
2023/01/25 11:50:46;;;;;;;107.38;36.40;;;0.30;99.90;;;;;;4998147;28;20026;-75
2023/01/25 11:53:35;;;;;;;97.97;34.90;;;0.30;99.90;;;;;;4990931;28;20035;-76
2023/01/25 11:56:06;;;;;;;88.60;31.35;;;0.30;99.90;;;;;;4990417;28;20046;-74
2023/01/25 11:59:00;;;;;;;111.80;39.72;;;0.40;99.90;;;;;;5003252;28;20041;-75
2023/01/25 12:01:47;;;;;;;105.50;36.95;;;0.40;99.90;;;;;;4997426;28;20034;-74
2023/01/25 12:04:41;;;;;;;94.85;35.25;;;0.30;99.90;;;;;;5001172;28;20037;-74
2023/01/25 12:07:45;;;;;;;94.78;34.20;;;0.30;99.90;;;;;;4998739;28;20502;-74
2023/01/25 12:10:39;;;;;;;90.68;32.63;;;0.30;99.90;;;;;;5003947;28;20030;-75
2023/01/25 12:13:23;;;;;;;99.82;35.05;;;0.30;99.90;;;;;;5003841;28;20042;-73
2023/01/25 12:16:01;;;;;;;;;;;0.30;99.90;;;;;;5003477;28;20026;-74
2023/01/25 12:18:50;;;;;;;95.13;34.42;;;0.30;99.90;;;;;;5002291;28;19913;-75
2023/01/25 12:21:50;;;;;;;95.82;32.88;;;0.30;99.90;;;;;;5006989;28;20030;-75
2023/01/25 12:24:31;;;;;;;95.63;34.10;;;0.20;99.90;;;;;;5006472;28;20026;-75
2023/01/25 12:27:11;;;;;;;83.28;30.90;;;0.20;99.90;;;;;;5004202;28;20046;-74
2023/01/25 12:29:51;;;;;;;88.85;33.70;;;0.20;99.90;;;;;;4989709;28;20031;-76
2023/01/25 12:32:29;;;;;;;92.28;34.35;;;0.20;99.90;;;;;;5007695;28;20041;-74
2023/01/25 12:35:14;;;;;;;104.88;36.15;;;0.20;99.90;;;;;;5006322;28;20527;-74
2023/01/25 12:37:42;;;;;;;102.57;36.85;;;0.20;99.90;;;;;;5003192;28;20030;-75
2023/01/25 12:40:17;;;;;;;104.63;36.53;;;0.20;99.90;;;;;;5000808;28;20035;-73
2023/01/25 12:42:50;;;;;;;94.20;32.75;;;0.20;99.90;;;;;;4991273;28;20044;-75
2023/01/25 12:45:37;;;;;;;103.13;35.03;;;0.20;99.90;;;;;;5007548;28;20042;-74
2023/01/25 12:48:20;;;;;;;94.10;34.60;;;0.10;99.90;;;;;;5005409;28;20038;-73
2023/01/25 12:50:57;;;;;;;89.70;32.40;;;0.00;99.90;;;;;;5007864;28;20038;-76